createdAt,value
2018-06-03T00:00:34.822Z,24.57
2018-06-03T00:03:06.328Z,24.30
2018-06-03T00:05:35.581Z,24.90
2018-06-03T00:08:04.765Z,22.67
2018-06-03T00:10:33.979Z,21.47
2018-06-03T00:13:03.162Z,23.13
2018-06-03T00:15:32.256Z,26.70
2018-06-03T00:18:01.399Z,25.30
2018-06-03T00:20:41.527Z,26.27
2018-06-03T00:23:10.948Z,25.90
2018-06-03T00:25:40.218Z,24.43
2018-06-03T00:28:10.030Z,24.73
2018-06-03T00:30:39.510Z,26.57
2018-06-03T00:33:09.102Z,27.40
2018-06-03T00:35:49.650Z,27.20
2018-06-03T00:38:18.995Z,27.07
2018-06-03T00:40:48.624Z,26.77
2018-06-03T00:43:24.989Z,26.30
2018-06-03T00:45:54.915Z,27.30
2018-06-03T00:48:24.279Z,25.70
2018-06-03T00:50:54.686Z,30.07
2018-06-03T00:53:24.040Z,26.73
2018-06-03T00:55:53.478Z,25.83
2018-06-03T00:58:22.838Z,25.67
2018-06-03T01:00:52.329Z,24.80
2018-06-03T01:03:21.722Z,25.10
2018-06-03T01:05:51.169Z,25.50
2018-06-03T01:08:20.690Z,25.80
2018-06-03T01:10:50.036Z,25.80
2018-06-03T01:13:19.589Z,27.87
2018-06-03T01:15:49.175Z,23.80
2018-06-03T01:18:18.592Z,24.47
2018-06-03T01:20:47.971Z,27.17
2018-06-03T01:26:17.227Z,26.83
2018-06-03T01:28:46.788Z,25.50
2018-06-03T01:31:16.235Z,25.40
2018-06-03T01:33:45.649Z,24.57
2018-06-03T01:36:15.215Z,26.30
2018-06-03T01:38:44.719Z,28.30
2018-06-03T01:41:14.162Z,27.80
2018-06-03T01:43:43.637Z,27.00
2018-06-03T01:46:13.107Z,27.97
2018-06-03T01:48:42.573Z,29.13
2018-06-03T01:51:12.087Z,27.43
2018-06-03T01:53:41.502Z,28.63
2018-06-03T01:56:11.046Z,30.73
2018-06-03T01:58:40.387Z,30.07
2018-06-03T02:01:09.809Z,27.70
2018-06-03T02:03:38.958Z,30.23
2018-06-03T02:06:14.968Z,29.00
2018-06-03T02:08:44.537Z,28.53
2018-06-03T02:11:14.019Z,32.07
2018-06-03T02:13:43.457Z,29.70
2018-06-03T02:16:12.757Z,28.73
2018-06-03T02:18:42.111Z,28.70
2018-06-03T02:21:11.441Z,26.63
2018-06-03T02:23:40.879Z,26.90
2018-06-03T02:26:10.404Z,29.40
2018-06-03T02:31:30.876Z,27.00
2018-06-03T02:34:00.321Z,29.37
2018-06-03T02:36:29.757Z,27.30
2018-06-03T02:38:59.190Z,27.67
2018-06-03T02:41:28.706Z,29.47
2018-06-03T02:43:58.286Z,28.70
2018-06-03T02:46:27.818Z,29.73
2018-06-03T02:48:57.386Z,28.63
2018-06-03T02:51:26.873Z,27.43
2018-06-03T02:53:56.104Z,31.50
2018-06-03T02:56:25.401Z,27.93
2018-06-03T02:58:54.842Z,31.93
2018-06-03T03:01:24.325Z,32.47
2018-06-03T03:03:57.581Z,31.90
2018-06-03T03:06:27.117Z,32.73
2018-06-03T03:08:56.711Z,30.07
2018-06-03T03:11:26.603Z,29.53
2018-06-03T03:13:55.881Z,29.20
2018-06-03T03:16:37.350Z,28.63
2018-06-03T03:19:47.982Z,28.73
2018-06-03T03:22:19.048Z,28.20
2018-06-03T03:24:50.853Z,30.70
2018-06-03T03:27:20.144Z,27.57
2018-06-03T03:29:49.389Z,28.83
2018-06-03T03:32:18.876Z,29.07
2018-06-03T03:34:48.723Z,29.70
2018-06-03T03:37:20.035Z,30.77
2018-06-03T03:39:49.946Z,28.10
2018-06-03T03:42:19.221Z,29.47
2018-06-03T03:44:48.571Z,28.37
2018-06-03T03:47:18.686Z,30.70
2018-06-03T03:49:48.026Z,29.23
2018-06-03T03:52:17.692Z,28.80
2018-06-03T03:54:46.932Z,29.80
2018-06-03T03:57:16.738Z,30.60
2018-06-03T03:59:46.397Z,29.40
2018-06-03T04:02:15.681Z,31.67
2018-06-03T04:04:44.920Z,27.90
2018-06-03T04:07:14.202Z,28.67
2018-06-03T04:09:43.455Z,27.93
2018-06-03T04:12:12.716Z,31.20
2018-06-03T04:14:42.851Z,28.23
2018-06-03T04:17:12.177Z,28.23
2018-06-03T04:19:41.660Z,30.53
2018-06-03T04:22:11.304Z,29.17
2018-06-03T04:24:40.570Z,31.60
2018-06-03T04:27:11.625Z,28.73
2018-06-03T04:29:41.441Z,30.30
2018-06-03T04:32:11.333Z,31.07
2018-06-03T04:34:40.636Z,31.90
2018-06-03T04:37:10.841Z,31.50
2018-06-03T04:39:40.118Z,28.57
2018-06-03T04:42:09.405Z,29.57
2018-06-03T04:44:39.829Z,29.00
2018-06-03T04:47:09.096Z,31.67
2018-06-03T04:49:38.380Z,29.67
2018-06-03T04:52:08.030Z,29.83
2018-06-03T04:54:37.885Z,31.10
2018-06-03T04:57:07.949Z,31.30
2018-06-03T04:59:37.218Z,29.23
2018-06-03T05:02:06.786Z,30.50
2018-06-03T05:04:36.748Z,29.43
2018-06-03T05:07:06.516Z,29.20
2018-06-03T05:09:35.828Z,28.00
2018-06-03T05:14:59.833Z,32.00
2018-06-03T05:17:41.263Z,29.80
2018-06-03T05:20:25.157Z,30.90
2018-06-03T05:22:58.316Z,30.40
2018-06-03T05:25:28.181Z,29.90
2018-06-03T05:27:59.574Z,30.03
2018-06-03T05:30:30.374Z,29.50
2018-06-03T05:33:07.631Z,28.97
2018-06-03T05:35:36.934Z,29.30
2018-06-03T05:38:09.141Z,28.07
2018-06-03T05:40:39.622Z,31.20
2018-06-03T05:43:08.975Z,28.50
2018-06-03T05:45:49.865Z,28.60
2018-06-03T05:48:57.897Z,28.83
2018-06-03T05:51:28.556Z,27.53
2018-06-03T05:54:23.157Z,25.77
2018-06-03T06:02:35.020Z,29.20
2018-06-03T06:05:13.407Z,27.93
2018-06-03T06:08:00.335Z,28.43
2018-06-03T06:10:48.721Z,27.10
2018-06-03T06:15:56.148Z,28.20
2018-06-03T06:18:25.430Z,28.70
2018-06-03T06:20:58.861Z,28.23
2018-06-03T06:23:50.036Z,28.13
2018-06-03T06:26:40.667Z,28.67
2018-06-03T06:29:12.540Z,27.27
2018-06-03T06:31:41.815Z,28.20
2018-06-03T06:34:13.064Z,29.37
2018-06-03T06:36:42.439Z,28.23
2018-06-03T06:39:11.798Z,29.30
2018-06-03T06:41:41.310Z,27.63
2018-06-03T06:44:10.503Z,27.87
2018-06-03T06:46:48.054Z,25.07
2018-06-03T06:49:32.873Z,27.30
2018-06-03T06:52:19.888Z,26.23
2018-06-03T06:54:55.924Z,27.63
2018-06-03T06:57:31.701Z,25.67
2018-06-03T07:00:01.591Z,25.90
2018-06-03T07:02:33.509Z,25.37
2018-06-03T07:05:04.700Z,25.20
2018-06-03T07:07:37.017Z,24.43
2018-06-03T07:10:07.418Z,27.23
2018-06-03T07:12:37.355Z,25.10
2018-06-03T07:15:06.597Z,24.37
2018-06-03T07:17:36.854Z,25.43
2018-06-03T07:20:06.348Z,26.70
2018-06-03T07:22:36.398Z,25.80
2018-06-03T07:25:06.118Z,24.67
2018-06-03T07:27:36.554Z,23.60
2018-06-03T07:30:06.153Z,23.20
2018-06-03T07:32:35.884Z,25.70
2018-06-03T07:35:05.615Z,24.60
2018-06-03T07:37:34.997Z,24.10
2018-06-03T07:40:04.534Z,23.73
2018-06-03T07:42:34.491Z,22.53
2018-06-03T07:45:22.115Z,23.20
2018-06-03T07:47:57.561Z,24.23
2018-06-03T07:50:35.225Z,23.60
2018-06-03T07:53:28.235Z,22.50
2018-06-03T07:55:59.799Z,26.50
2018-06-03T07:58:47.391Z,23.10
2018-06-03T08:01:46.776Z,20.97
2018-06-03T08:04:32.977Z,21.03
2018-06-03T08:07:07.690Z,22.40
2018-06-03T08:09:37.140Z,23.53
2018-06-03T08:12:07.534Z,22.20
2018-06-03T08:14:37.254Z,23.13
2018-06-03T08:17:12.807Z,19.33
2018-06-03T08:19:51.765Z,20.50
2018-06-03T08:22:21.721Z,19.73
2018-06-03T08:24:51.582Z,17.90
2018-06-03T08:27:21.201Z,17.70
2018-06-03T08:29:51.081Z,19.30
2018-06-03T08:32:20.769Z,19.23
2018-06-03T08:34:51.339Z,19.10
2018-06-03T08:37:20.923Z,18.90
2018-06-03T08:39:50.854Z,18.10
2018-06-03T08:42:20.119Z,16.67
2018-06-03T08:44:49.410Z,17.27
2018-06-03T08:47:19.844Z,16.93
2018-06-03T08:49:50.160Z,16.00
2018-06-03T08:52:20.790Z,16.97
2018-06-03T08:54:51.666Z,18.00
2018-06-03T08:57:22.288Z,19.67
2018-06-03T08:59:54.683Z,19.27
2018-06-03T09:02:25.764Z,19.50
2018-06-03T09:04:55.682Z,18.70
2018-06-03T09:07:25.658Z,19.43
2018-06-03T09:09:55.355Z,20.87
2018-06-03T09:12:27.025Z,20.30
2018-06-03T09:15:25.615Z,16.70
2018-06-03T09:20:48.485Z,21.50
2018-06-03T09:23:24.377Z,22.43
2018-06-03T09:26:01.507Z,20.10
2018-06-03T09:28:41.473Z,20.73
2018-06-03T09:31:15.994Z,22.37
2018-06-03T09:33:49.484Z,22.03
2018-06-03T09:36:23.401Z,21.47
2018-06-03T09:38:58.548Z,22.07
2018-06-03T09:41:31.516Z,24.10
2018-06-03T09:44:01.201Z,19.80
2018-06-03T09:46:31.018Z,19.10
2018-06-03T09:49:00.975Z,17.50
2018-06-03T09:51:31.051Z,19.40
2018-06-03T09:54:02.498Z,17.97
2018-06-03T09:56:37.107Z,18.87
2018-06-03T09:59:20.412Z,19.03
2018-06-03T10:02:10.191Z,22.43
2018-06-03T10:04:43.484Z,18.17
2018-06-03T10:11:21.994Z,21.27
2018-06-03T10:29:42.229Z,17.67
2018-06-03T10:32:33.635Z,16.83
2018-06-03T10:35:04.011Z,16.80
2018-06-03T10:37:34.078Z,18.03
2018-06-03T10:40:04.791Z,14.93
2018-06-03T10:42:38.919Z,17.90
2018-06-03T10:45:12.118Z,16.43
2018-06-03T10:47:43.380Z,15.20
2018-06-03T10:50:13.282Z,15.00
2018-06-03T10:52:44.366Z,14.43
2018-06-03T10:55:15.072Z,12.60
2018-06-03T10:57:44.795Z,12.90
2018-06-03T11:00:15.456Z,13.70
2018-06-03T11:02:48.089Z,12.50
2018-06-03T11:05:18.222Z,12.83
2018-06-03T11:07:48.420Z,10.73
2018-06-03T11:10:19.472Z,11.97
2018-06-03T11:12:55.083Z,11.10
2018-06-03T11:15:25.160Z,10.63
2018-06-03T11:17:55.289Z,11.03
2018-06-03T11:20:26.962Z,10.13
2018-06-03T11:22:59.697Z,10.40
2018-06-03T11:25:29.856Z,9.63
2018-06-03T11:28:05.748Z,10.87
2018-06-03T11:30:35.983Z,10.47
2018-06-03T11:33:11.496Z,9.70
2018-06-03T11:35:45.675Z,9.67
2018-06-03T11:38:23.343Z,9.27
2018-06-03T11:40:56.116Z,8.10
2018-06-03T11:43:27.846Z,8.10
2018-06-03T11:45:59.475Z,7.10
2018-06-03T11:51:12.565Z,6.20
2018-06-03T11:53:43.623Z,7.20
2018-06-03T11:56:35.475Z,7.30
2018-06-03T11:59:20.541Z,7.50
2018-06-03T12:01:55.398Z,7.33
2018-06-03T12:04:25.771Z,7.97
2018-06-03T12:06:55.889Z,9.70
2018-06-03T12:09:25.387Z,9.47
2018-06-03T12:11:57.796Z,9.60
2018-06-03T12:14:29.636Z,8.70
2018-06-03T12:16:59.620Z,10.60
2018-06-03T12:19:30.319Z,12.53
2018-06-03T12:22:01.195Z,11.90
2018-06-03T12:24:32.188Z,12.40
2018-06-03T12:27:04.845Z,10.47
2018-06-03T12:29:34.652Z,11.40
2018-06-03T12:32:04.708Z,10.97
2018-06-03T12:34:34.781Z,9.07
2018-06-03T12:37:04.924Z,10.10
2018-06-03T12:39:34.664Z,12.00
2018-06-03T12:42:14.304Z,9.87
2018-06-03T12:44:47.286Z,9.30
2018-06-03T12:47:29.393Z,7.50
2018-06-03T12:50:06.384Z,7.80
2018-06-03T12:52:38.675Z,7.57
2018-06-03T12:55:12.201Z,6.67
2018-06-03T12:57:44.496Z,7.83
2018-06-03T13:00:15.266Z,7.20
2018-06-03T13:02:46.569Z,6.77
2018-06-03T13:05:21.830Z,6.73
2018-06-03T13:07:55.333Z,7.40
2018-06-03T13:10:32.829Z,8.20
2018-06-03T13:13:38.793Z,7.87
2018-06-03T13:16:35.154Z,7.37
2018-06-03T13:19:58.177Z,7.67
2018-06-03T13:24:32.665Z,7.27
2018-06-03T13:28:11.258Z,7.40
2018-06-03T13:34:08.330Z,6.20
2018-06-03T13:39:56.993Z,7.83
2018-06-03T13:55:03.829Z,7.80
2018-06-03T13:58:04.637Z,7.13
2018-06-03T14:01:03.805Z,6.73
2018-06-03T14:04:02.638Z,7.73
2018-06-03T14:06:41.387Z,6.97
2018-06-03T14:09:19.195Z,6.90
2018-06-03T14:11:56.695Z,7.33
2018-06-03T14:14:28.123Z,8.47
2018-06-03T14:16:58.032Z,9.10
2018-06-03T14:19:28.193Z,7.33
2018-06-03T14:21:58.141Z,9.20
2018-06-03T14:24:28.250Z,9.60
2018-06-03T14:27:00.119Z,8.57
2018-06-03T14:29:31.026Z,8.37
2018-06-03T14:32:01.078Z,8.37
2018-06-03T14:34:31.485Z,7.97
2018-06-03T14:37:01.298Z,7.73
2018-06-03T14:39:31.367Z,7.27
2018-06-03T14:42:01.495Z,6.40
2018-06-03T14:44:32.603Z,7.10
2018-06-03T14:47:02.457Z,7.10
2018-06-03T14:49:33.067Z,7.70
2018-06-03T14:52:02.682Z,8.37
2018-06-03T14:54:32.326Z,7.47
2018-06-03T14:57:04.933Z,6.07
2018-06-03T14:59:35.462Z,7.00
2018-06-03T15:02:04.985Z,8.10
2018-06-03T15:04:34.382Z,7.00
2018-06-03T15:07:05.911Z,6.50
2018-06-03T15:09:35.917Z,6.90
2018-06-03T15:12:05.477Z,5.13
2018-06-03T15:14:37.164Z,5.30
2018-06-03T15:17:07.209Z,5.60
2018-06-03T15:19:36.975Z,6.20
2018-06-03T15:22:11.061Z,6.10
2018-06-03T15:24:40.608Z,6.77
2018-06-03T15:27:10.351Z,7.10
2018-06-03T15:29:40.424Z,6.90
2018-06-03T15:32:15.389Z,6.80
2018-06-03T15:34:45.874Z,6.80
2018-06-03T15:37:18.499Z,4.57
2018-06-03T15:39:49.611Z,5.70
2018-06-03T15:42:19.560Z,5.30
2018-06-03T15:44:49.895Z,6.30
2018-06-03T15:47:21.318Z,6.03
2018-06-03T15:49:50.617Z,6.10
2018-06-03T15:52:20.383Z,7.00
2018-06-03T15:54:50.995Z,5.60
2018-06-03T15:57:22.248Z,17.03
2018-06-03T15:59:53.570Z,7.40
2018-06-03T16:02:23.214Z,5.90
2018-06-03T16:04:54.316Z,6.47
2018-06-03T16:07:24.050Z,7.80
2018-06-03T16:09:56.088Z,6.07
2018-06-03T16:12:29.278Z,6.20
2018-06-03T16:15:01.273Z,6.30
2018-06-03T16:17:31.217Z,6.10
2018-06-03T16:20:04.044Z,5.80
2018-06-03T16:22:34.259Z,15.80
2018-06-03T16:25:03.649Z,6.30
2018-06-03T16:27:34.795Z,7.97
2018-06-03T16:30:05.613Z,6.53
2018-06-03T16:32:35.728Z,6.30
2018-06-03T16:35:06.080Z,6.50
2018-06-03T16:37:35.541Z,8.20
2018-06-03T16:40:09.526Z,8.33
2018-06-03T16:42:39.142Z,9.47
2018-06-03T17:02:48.041Z,7.00
2018-06-03T17:10:57.185Z,6.73
2018-06-03T17:14:14.136Z,8.70
2018-06-03T17:17:33.811Z,6.83
2018-06-03T19:13:04.395Z,8.53
2018-06-03T19:16:16.762Z,9.80
2018-06-03T19:32:59.653Z,9.90
2018-06-03T19:35:55.986Z,8.97
2018-06-03T19:38:25.537Z,9.03
2018-06-03T20:06:06.352Z,14.57
2018-06-03T20:17:02.383Z,11.53
2018-06-03T21:11:02.806Z,19.00
2018-06-03T21:15:25.533Z,21.67
2018-06-03T22:26:36.582Z,15.77
2018-06-03T23:29:12.449Z,15.20
2018-06-03T23:36:50.776Z,14.40
2018-06-03T23:46:51.200Z,17.93
2018-06-03T23:49:51.584Z,14.23
